sensor_id;sensor_type;location;lat;lon;timestamp;pressure;altitude;pressure_sealevel;temperature;humidity
48668;BME280;34453;52.198;5.004;2023-04-15T00:00:03;101003.50;;;7.93;100.00
48668;BME280;34453;52.198;5.004;2023-04-15T00:02:29;101012.28;;;7.92;100.00
48668;BME280;34453;52.198;5.004;2023-04-15T00:04:55;101013.09;;;7.92;100.00
48668;BME280;34453;52.198;5.004;2023-04-15T00:07:20;101006.56;;;7.98;100.00
48668;BME280;34453;52.198;5.004;2023-04-15T00:09:46;101015.91;;;8.00;100.00
48668;BME280;34453;52.198;5.004;2023-04-15T00:12:11;101008.34;;;7.97;100.00
48668;BME280;34453;52.198;5.004;2023-04-15T00:14:37;101016.50;;;8.04;100.00
48668;BME280;34453;52.198;5.004;2023-04-15T00:17:03;101007.16;;;8.01;100.00
48668;BME280;34453;52.198;5.004;2023-04-15T00:19:29;101012.03;;;7.95;100.00
48668;BME280;34453;52.198;5.004;2023-04-15T00:21:55;101015.56;;;7.94;100.00
48668;BME280;34453;52.198;5.004;2023-04-15T00:24:21;101017.13;;;7.85;100.00
48668;BME280;34453;52.198;5.004;2023-04-15T00:26:47;101007.75;;;7.82;100.00
48668;BME280;34453;52.198;5.004;2023-04-15T00:29:13;101014.88;;;7.80;100.00
48668;BME280;34453;52.198;5.004;2023-04-15T00:31:39;101020.56;;;7.74;100.00
48668;BME280;34453;52.198;5.004;2023-04-15T00:34:05;101015.72;;;7.70;100.00
48668;BME280;34453;52.198;5.004;2023-04-15T00:36:30;101025.28;;;7.69;100.00
48668;BME280;34453;52.198;5.004;2023-04-15T00:38:58;101022.81;;;7.67;100.00
48668;BME280;34453;52.198;5.004;2023-04-15T00:41:23;101022.00;;;7.67;100.00
48668;BME280;34453;52.198;5.004;2023-04-15T00:43:49;101026.47;;;7.65;100.00
48668;BME280;34453;52.198;5.004;2023-04-15T00:46:16;101019.72;;;7.62;100.00
48668;BME280;34453;52.198;5.004;2023-04-15T00:48:43;101025.78;;;7.63;100.00
48668;BME280;34453;52.198;5.004;2023-04-15T00:51:09;101014.84;;;7.58;100.00
48668;BME280;34453;52.198;5.004;2023-04-15T00:53:35;101023.53;;;7.58;100.00
48668;BME280;34453;52.198;5.004;2023-04-15T00:56:00;101013.47;;;7.54;100.00
48668;BME280;34453;52.198;5.004;2023-04-15T00:58:26;101021.47;;;7.51;100.00
48668;BME280;34453;52.198;5.004;2023-04-15T01:00:52;101022.09;;;7.43;100.00
48668;BME280;34453;52.198;5.004;2023-04-15T01:03:19;101019.59;;;7.41;100.00
48668;BME280;34453;52.198;5.004;2023-04-15T01:05:45;101018.88;;;7.39;100.00
48668;BME280;34453;52.198;5.004;2023-04-15T01:08:10;101016.50;;;7.36;100.00
48668;BME280;34453;52.198;5.004;2023-04-15T01:10:36;101014.97;;;7.34;100.00
48668;BME280;34453;52.198;5.004;2023-04-15T01:13:02;101016.97;;;7.30;100.00
48668;BME280;34453;52.198;5.004;2023-04-15T01:15:28;101016.25;;;7.28;100.00
48668;BME280;34453;52.198;5.004;2023-04-15T01:17:53;101019.75;;;7.16;100.00
48668;BME280;34453;52.198;5.004;2023-04-15T01:20:19;101017.28;;;7.14;100.00
48668;BME280;34453;52.198;5.004;2023-04-15T01:22:47;101016.22;;;7.17;100.00
48668;BME280;34453;52.198;5.004;2023-04-15T01:25:18;101013.53;;;7.18;100.00
48668;BME280;34453;52.198;5.004;2023-04-15T01:27:44;101021.91;;;7.22;100.00
48668;BME280;34453;52.198;5.004;2023-04-15T01:30:10;101019.53;;;7.19;100.00
48668;BME280;34453;52.198;5.004;2023-04-15T01:32:36;101022.16;;;7.19;100.00
48668;BME280;34453;52.198;5.004;2023-04-15T01:35:01;101021.19;;;7.20;100.00
48668;BME280;34453;52.198;5.004;2023-04-15T01:37:27;101022.16;;;7.19;100.00
48668;BME280;34453;52.198;5.004;2023-04-15T01:39:53;101022.25;;;7.17;100.00
48668;BME280;34453;52.198;5.004;2023-04-15T01:42:20;101016.69;;;7.11;100.00
48668;BME280;34453;52.198;5.004;2023-04-15T01:44:46;101025.66;;;7.06;100.00
48668;BME280;34453;52.198;5.004;2023-04-15T01:47:12;101029.22;;;7.05;100.00
48668;BME280;34453;52.198;5.004;2023-04-15T01:49:37;101023.03;;;7.06;100.00
48668;BME280;34453;52.198;5.004;2023-04-15T01:52:02;101021.97;;;7.09;100.00
48668;BME280;34453;52.198;5.004;2023-04-15T01:54:28;101024.47;;;7.11;100.00
48668;BME280;34453;52.198;5.004;2023-04-15T01:56:53;101028.16;;;7.08;100.00
48668;BME280;34453;52.198;5.004;2023-04-15T01:59:20;101025.91;;;7.15;100.00
48668;BME280;34453;52.198;5.004;2023-04-15T02:01:45;101020.81;;;7.13;100.00
48668;BME280;34453;52.198;5.004;2023-04-15T02:04:11;101025.44;;;7.10;100.00
48668;BME280;34453;52.198;5.004;2023-04-15T02:06:42;101021.97;;;7.09;100.00
48668;BME280;34453;52.198;5.004;2023-04-15T02:09:08;101027.16;;;6.98;100.00
48668;BME280;34453;52.198;5.004;2023-04-15T02:11:34;101027.16;;;6.98;100.00
48668;BME280;34453;52.198;5.004;2023-04-15T02:14:00;101030.00;;;6.95;100.00
48668;BME280;34453;52.198;5.004;2023-04-15T02:16:25;101042.19;;;6.94;100.00
48668;BME280;34453;52.198;5.004;2023-04-15T02:18:51;101043.00;;;6.95;100.00
48668;BME280;34453;52.198;5.004;2023-04-15T02:21:16;101045.94;;;6.90;100.00
48668;BME280;34453;52.198;5.004;2023-04-15T02:23:43;101051.13;;;6.90;100.00
48668;BME280;34453;52.198;5.004;2023-04-15T02:26:09;101053.03;;;6.88;100.00
48668;BME280;34453;52.198;5.004;2023-04-15T02:28:34;101048.38;;;6.80;100.00
48668;BME280;34453;52.198;5.004;2023-04-15T02:31:00;101050.38;;;6.77;100.00
48668;BME280;34453;52.198;5.004;2023-04-15T02:33:26;101061.97;;;6.84;100.00
48668;BME280;34453;52.198;5.004;2023-04-15T02:35:51;101049.25;;;6.92;100.00
48668;BME280;34453;52.198;5.004;2023-04-15T02:38:17;101060.72;;;6.90;100.00
48668;BME280;34453;52.198;5.004;2023-04-15T02:40:42;101060.09;;;6.86;100.00
48668;BME280;34453;52.198;5.004;2023-04-15T02:43:08;101060.00;;;6.88;100.00
48668;BME280;34453;52.198;5.004;2023-04-15T02:45:33;101068.53;;;6.90;100.00
48668;BME280;34453;52.198;5.004;2023-04-15T02:47:59;101070.59;;;6.84;100.00
48668;BME280;34453;52.198;5.004;2023-04-15T02:50:30;101070.59;;;6.84;100.00
48668;BME280;34453;52.198;5.004;2023-04-15T02:52:55;101070.75;;;6.83;100.00
48668;BME280;34453;52.198;5.004;2023-04-15T02:55:21;101071.56;;;6.83;100.00
48668;BME280;34453;52.198;5.004;2023-04-15T02:57:46;101076.16;;;6.80;100.00
48668;BME280;34453;52.198;5.004;2023-04-15T03:00:12;101086.06;;;6.75;100.00
48668;BME280;34453;52.198;5.004;2023-04-15T03:02:38;101080.13;;;6.73;100.00
48668;BME280;34453;52.198;5.004;2023-04-15T03:05:05;101090.53;;;6.73;100.00
48668;BME280;34453;52.198;5.004;2023-04-15T03:07:31;101092.13;;;6.62;100.00
48668;BME280;34453;52.198;5.004;2023-04-15T03:09:56;101091.19;;;6.63;100.00
48668;BME280;34453;52.198;5.004;2023-04-15T03:12:22;101079.50;;;6.69;100.00
48668;BME280;34453;52.198;5.004;2023-04-15T03:14:47;101085.34;;;6.73;100.00
48668;BME280;34453;52.198;5.004;2023-04-15T03:17:13;101090.31;;;6.76;100.00
48668;BME280;34453;52.198;5.004;2023-04-15T03:19:38;101084.41;;;6.74;100.00
48668;BME280;34453;52.198;5.004;2023-04-15T03:22:03;101089.38;;;6.77;100.00
48668;BME280;34453;52.198;5.004;2023-04-15T03:24:29;101099.88;;;6.75;100.00
48668;BME280;34453;52.198;5.004;2023-04-15T03:26:57;101091.75;;;6.80;100.00
48668;BME280;34453;52.198;5.004;2023-04-15T03:29:23;101095.06;;;6.82;100.00
48668;BME280;34453;52.198;5.004;2023-04-15T03:31:48;101097.47;;;6.85;100.00
48668;BME280;34453;52.198;5.004;2023-04-15T03:34:14;101099.22;;;6.84;100.00
48668;BME280;34453;52.198;5.004;2023-04-15T03:36:39;101109.63;;;6.84;100.00
48668;BME280;34453;52.198;5.004;2023-04-15T03:39:04;101108.78;;;6.84;100.00
48668;BME280;34453;52.198;5.004;2023-04-15T03:41:30;101112.13;;;6.86;100.00
48668;BME280;34453;52.198;5.004;2023-04-15T03:43:56;101118.03;;;6.88;100.00
48668;BME280;34453;52.198;5.004;2023-04-15T03:46:22;101118.03;;;6.88;100.00
48668;BME280;34453;52.198;5.004;2023-04-15T03:48:47;101121.09;;;6.82;100.00
48668;BME280;34453;52.198;5.004;2023-04-15T03:51:13;101127.63;;;6.88;100.00
48668;BME280;34453;52.198;5.004;2023-04-15T03:53:38;101130.44;;;6.84;100.00
48668;BME280;34453;52.198;5.004;2023-04-15T03:56:04;101131.72;;;6.79;100.00
48668;BME280;34453;52.198;5.004;2023-04-15T03:58:29;101135.47;;;6.75;100.00
48668;BME280;34453;52.198;5.004;2023-04-15T04:00:55;101144.25;;;6.61;100.00
48668;BME280;34453;52.198;5.004;2023-04-15T04:03:20;101147.78;;;6.60;100.00
48668;BME280;34453;52.198;5.004;2023-04-15T04:05:46;101146.47;;;6.41;100.00
48668;BME280;34453;52.198;5.004;2023-04-15T04:08:11;101150.19;;;6.50;100.00
48668;BME280;34453;52.198;5.004;2023-04-15T04:10:38;101151.56;;;6.43;100.00
48668;BME280;34453;52.198;5.004;2023-04-15T04:13:04;101154.47;;;6.38;100.00
48668;BME280;34453;52.198;5.004;2023-04-15T04:15:29;101149.88;;;6.42;100.00
48668;BME280;34453;52.198;5.004;2023-04-15T04:17:55;101153.63;;;6.38;100.00
48668;BME280;34453;52.198;5.004;2023-04-15T04:20:21;101152.22;;;6.34;100.00
48668;BME280;34453;52.198;5.004;2023-04-15T04:22:47;101161.75;;;6.33;100.00
48668;BME280;34453;52.198;5.004;2023-04-15T04:25:12;101162.38;;;6.37;100.00
48668;BME280;34453;52.198;5.004;2023-04-15T04:27:38;101162.38;;;6.37;100.00
48668;BME280;34453;52.198;5.004;2023-04-15T04:30:04;101163.09;;;6.39;100.00
48668;BME280;34453;52.198;5.004;2023-04-15T04:32:31;101158.56;;;6.17;100.00
48668;BME280;34453;52.198;5.004;2023-04-15T04:34:56;101166.56;;;6.14;100.00
48668;BME280;34453;52.198;5.004;2023-04-15T04:37:22;101169.47;;;5.96;100.00
48668;BME280;34453;52.198;5.004;2023-04-15T04:39:47;101178.09;;;5.97;100.00
48668;BME280;34453;52.198;5.004;2023-04-15T04:42:13;101184.38;;;5.93;100.00
48668;BME280;34453;52.198;5.004;2023-04-15T04:44:38;101193.44;;;5.87;100.00
48668;BME280;34453;52.198;5.004;2023-04-15T04:47:04;101190.19;;;5.84;100.00
48668;BME280;34453;52.198;5.004;2023-04-15T04:49:30;101197.75;;;5.87;100.00
48668;BME280;34453;52.198;5.004;2023-04-15T04:51:56;101203.91;;;5.86;100.00
48668;BME280;34453;52.198;5.004;2023-04-15T04:54:21;101207.41;;;5.85;100.00
48668;BME280;34453;52.198;5.004;2023-04-15T04:56:47;101209.50;;;5.79;100.00
48668;BME280;34453;52.198;5.004;2023-04-15T04:59:13;101212.03;;;5.94;100.00
48668;BME280;34453;52.198;5.004;2023-04-15T05:01:39;101211.28;;;5.92;100.00
48668;BME280;34453;52.198;5.004;2023-04-15T05:04:04;101222.50;;;5.92;100.00
48668;BME280;34453;52.198;5.004;2023-04-15T05:06:31;101218.06;;;5.94;100.00
48668;BME280;34453;52.198;5.004;2023-04-15T05:08:56;101230.75;;;5.99;100.00
48668;BME280;34453;52.198;5.004;2023-04-15T05:11:22;101231.28;;;6.04;100.00
48668;BME280;34453;52.198;5.004;2023-04-15T05:13:47;101233.47;;;6.10;100.00
48668;BME280;34453;52.198;5.004;2023-04-15T05:16:13;101242.72;;;6.14;100.00
48668;BME280;34453;52.198;5.004;2023-04-15T05:18:38;101250.53;;;6.14;100.00
48668;BME280;34453;52.198;5.004;2023-04-15T05:21:04;101244.06;;;6.20;100.00
48668;BME280;34453;52.198;5.004;2023-04-15T05:23:30;101256.94;;;6.09;100.00
48668;BME280;34453;52.198;5.004;2023-04-15T05:25:55;101254.25;;;6.10;100.00
48668;BME280;34453;52.198;5.004;2023-04-15T05:28:21;101267.56;;;6.18;100.00
48668;BME280;34453;52.198;5.004;2023-04-15T05:30:46;101265.28;;;6.14;100.00
48668;BME280;34453;52.198;5.004;2023-04-15T05:33:12;101273.47;;;6.08;100.00
48668;BME280;34453;52.198;5.004;2023-04-15T05:35:37;101279.41;;;6.10;100.00
48668;BME280;34453;52.198;5.004;2023-04-15T05:38:02;101287.50;;;6.18;100.00
48668;BME280;34453;52.198;5.004;2023-04-15T05:40:29;101279.25;;;6.38;100.00
48668;BME280;34453;52.198;5.004;2023-04-15T05:42:55;101287.94;;;6.37;100.00
48668;BME280;34453;52.198;5.004;2023-04-15T05:45:21;101290.88;;;6.46;100.00
48668;BME280;34453;52.198;5.004;2023-04-15T05:47:46;101289.44;;;6.54;100.00
48668;BME280;34453;52.198;5.004;2023-04-15T05:50:14;101307.09;;;6.62;100.00
48668;BME280;34453;52.198;5.004;2023-04-15T05:52:39;101314.72;;;6.65;100.00
48668;BME280;34453;52.198;5.004;2023-04-15T05:55:05;101311.25;;;6.77;100.00
48668;BME280;34453;52.198;5.004;2023-04-15T05:57:31;101310.94;;;6.82;100.00
48668;BME280;34453;52.198;5.004;2023-04-15T05:59:56;101311.88;;;6.94;100.00
48668;BME280;34453;52.198;5.004;2023-04-15T06:02:22;101316.31;;;7.04;100.00
48668;BME280;34453;52.198;5.004;2023-04-15T06:04:47;101312.06;;;7.16;100.00
48668;BME280;34453;52.198;5.004;2023-04-15T06:07:13;101321.72;;;7.27;100.00
48668;BME280;34453;52.198;5.004;2023-04-15T06:09:38;101329.91;;;7.34;100.00
48668;BME280;34453;52.198;5.004;2023-04-15T06:12:03;101333.03;;;7.39;100.00
48668;BME280;34453;52.198;5.004;2023-04-15T06:14:31;101338.78;;;7.55;100.00
48668;BME280;34453;52.198;5.004;2023-04-15T06:16:56;101343.56;;;7.61;100.00
48668;BME280;34453;52.198;5.004;2023-04-15T06:19:21;101351.06;;;7.66;100.00
48668;BME280;34453;52.198;5.004;2023-04-15T06:21:47;101353.00;;;7.75;100.00
48668;BME280;34453;52.198;5.004;2023-04-15T06:24:12;101352.47;;;7.83;100.00
48668;BME280;34453;52.198;5.004;2023-04-15T06:26:38;101359.47;;;7.94;100.00
48668;BME280;34453;52.198;5.004;2023-04-15T06:29:03;101357.78;;;8.05;100.00
48668;BME280;34453;52.198;5.004;2023-04-15T06:31:29;101355.75;;;8.09;100.00
48668;BME280;34453;52.198;5.004;2023-04-15T06:33:54;101359.59;;;8.16;100.00
48668;BME280;34453;52.198;5.004;2023-04-15T06:36:20;101367.47;;;8.27;100.00
48668;BME280;34453;52.198;5.004;2023-04-15T06:38:45;101379.31;;;8.32;100.00
48668;BME280;34453;52.198;5.004;2023-04-15T06:41:11;101380.31;;;8.42;100.00
48668;BME280;34453;52.198;5.004;2023-04-15T06:43:38;101378.44;;;8.44;100.00
48668;BME280;34453;52.198;5.004;2023-04-15T06:46:03;101370.88;;;8.52;100.00
48668;BME280;34453;52.198;5.004;2023-04-15T06:48:29;101392.94;;;8.59;100.00
48668;BME280;34453;52.198;5.004;2023-04-15T06:50:54;101387.03;;;8.68;100.00
48668;BME280;34453;52.198;5.004;2023-04-15T06:53:20;101390.38;;;8.82;100.00
48668;BME280;34453;52.198;5.004;2023-04-15T06:55:46;101393.47;;;8.87;100.00
48668;BME280;34453;52.198;5.004;2023-04-15T06:58:11;101392.66;;;8.98;100.00
48668;BME280;34453;52.198;5.004;2023-04-15T07:00:37;101403.69;;;9.01;100.00
48668;BME280;34453;52.198;5.004;2023-04-15T07:03:04;101410.47;;;9.15;100.00
48668;BME280;34453;52.198;5.004;2023-04-15T07:05:30;101412.72;;;9.20;100.00
48668;BME280;34453;52.198;5.004;2023-04-15T07:07:56;101413.91;;;9.27;100.00
48668;BME280;34453;52.198;5.004;2023-04-15T07:10:22;101409.88;;;9.34;100.00
48668;BME280;34453;52.198;5.004;2023-04-15T07:12:48;101410.81;;;9.44;100.00
48668;BME280;34453;52.198;5.004;2023-04-15T07:15:15;101416.66;;;9.48;100.00
48668;BME280;34453;52.198;5.004;2023-04-15T07:17:40;101412.59;;;9.55;100.00
48668;BME280;34453;52.198;5.004;2023-04-15T07:20:08;101422.09;;;9.67;100.00
48668;BME280;34453;52.198;5.004;2023-04-15T07:22:33;101419.13;;;9.72;100.00
48668;BME280;34453;52.198;5.004;2023-04-15T07:24:59;101421.94;;;9.80;100.00
48668;BME280;34453;52.198;5.004;2023-04-15T07:27:25;101426.22;;;9.81;100.00
48668;BME280;34453;52.198;5.004;2023-04-15T07:29:51;101435.47;;;9.85;100.00
48668;BME280;34453;52.198;5.004;2023-04-15T07:32:17;101433.56;;;9.99;100.00
48668;BME280;34453;52.198;5.004;2023-04-15T07:34:43;101444.94;;;9.98;100.00
48668;BME280;34453;52.198;5.004;2023-04-15T07:37:09;101450.16;;;10.09;100.00
48668;BME280;34453;52.198;5.004;2023-04-15T07:39:35;101454.78;;;10.16;100.00
48668;BME280;34453;52.198;5.004;2023-04-15T07:42:01;101464.84;;;10.32;100.00
48668;BME280;34453;52.198;5.004;2023-04-15T07:44:28;101448.22;;;10.22;100.00
48668;BME280;34453;52.198;5.004;2023-04-15T07:46:55;101456.03;;;10.33;100.00
48668;BME280;34453;52.198;5.004;2023-04-15T07:49:21;101459.47;;;10.45;100.00
48668;BME280;34453;52.198;5.004;2023-04-15T07:51:47;101457.91;;;10.54;100.00
48668;BME280;34453;52.198;5.004;2023-04-15T07:54:14;101465.44;;;10.68;100.00
48668;BME280;34453;52.198;5.004;2023-04-15T07:56:39;101467.03;;;10.81;100.00
48668;BME280;34453;52.198;5.004;2023-04-15T07:59:05;101471.56;;;10.78;100.00
48668;BME280;34453;52.198;5.004;2023-04-15T08:01:31;101468.88;;;10.90;100.00
48668;BME280;34453;52.198;5.004;2023-04-15T08:03:58;101472.38;;;11.00;100.00
48668;BME280;34453;52.198;5.004;2023-04-15T08:06:24;101477.53;;;11.11;100.00
48668;BME280;34453;52.198;5.004;2023-04-15T08:08:49;101487.47;;;11.08;100.00
48668;BME280;34453;52.198;5.004;2023-04-15T08:11:15;101488.22;;;11.19;100.00
48668;BME280;34453;52.198;5.004;2023-04-15T08:13:41;101484.56;;;11.32;100.00
48668;BME280;34453;52.198;5.004;2023-04-15T08:16:18;101496.19;;;11.39;100.00
48668;BME280;34453;52.198;5.004;2023-04-15T08:18:45;101501.44;;;11.39;100.00
48668;BME280;34453;52.198;5.004;2023-04-15T08:21:11;101503.22;;;11.38;100.00
48668;BME280;34453;52.198;5.004;2023-04-15T08:23:37;101503.94;;;11.40;100.00
48668;BME280;34453;52.198;5.004;2023-04-15T08:26:03;101507.38;;;11.41;100.00
48668;BME280;34453;52.198;5.004;2023-04-15T08:28:29;101507.75;;;11.36;100.00
48668;BME280;34453;52.198;5.004;2023-04-15T08:30:54;101514.72;;;11.47;100.00
48668;BME280;34453;52.198;5.004;2023-04-15T08:33:20;101517.25;;;11.58;100.00
48668;BME280;34453;52.198;5.004;2023-04-15T08:35:46;101522.78;;;11.65;100.00
48668;BME280;34453;52.198;5.004;2023-04-15T08:38:11;101521.69;;;11.68;100.00
48668;BME280;34453;52.198;5.004;2023-04-15T08:40:42;101521.44;;;11.71;100.00
48668;BME280;34453;52.198;5.004;2023-04-15T08:43:26;101537.47;;;11.77;100.00
48668;BME280;34453;52.198;5.004;2023-04-15T08:45:53;101536.56;;;11.88;100.00
48668;BME280;34453;52.198;5.004;2023-04-15T08:48:20;101541.72;;;11.99;100.00
48668;BME280;34453;52.198;5.004;2023-04-15T08:50:47;101542.72;;;12.18;100.00
48668;BME280;34453;52.198;5.004;2023-04-15T08:53:13;101532.09;;;12.29;100.00
48668;BME280;34453;52.198;5.004;2023-04-15T08:55:44;101537.94;;;12.33;100.00
48668;BME280;34453;52.198;5.004;2023-04-15T08:58:11;101544.28;;;12.30;100.00
48668;BME280;34453;52.198;5.004;2023-04-15T09:00:37;101559.75;;;12.33;100.00
48668;BME280;34453;52.198;5.004;2023-04-15T09:03:06;101556.88;;;12.56;100.00
48668;BME280;34453;52.198;5.004;2023-04-15T09:08:14;101561.19;;;12.76;100.00
48668;BME280;34453;52.198;5.004;2023-04-15T09:10:40;101558.28;;;12.79;100.00
48668;BME280;34453;52.198;5.004;2023-04-15T09:13:05;101567.97;;;12.98;100.00
48668;BME280;34453;52.198;5.004;2023-04-15T09:15:32;101567.00;;;12.90;100.00
48668;BME280;34453;52.198;5.004;2023-04-15T09:17:57;101578.59;;;13.06;100.00
48668;BME280;34453;52.198;5.004;2023-04-15T09:20:23;101585.78;;;13.14;100.00
48668;BME280;34453;52.198;5.004;2023-04-15T09:22:49;101583.59;;;12.90;100.00
48668;BME280;34453;52.198;5.004;2023-04-15T09:25:26;101583.31;;;12.83;100.00
48668;BME280;34453;52.198;5.004;2023-04-15T09:27:58;101592.56;;;12.68;100.00
48668;BME280;34453;52.198;5.004;2023-04-15T09:30:25;101592.84;;;12.65;100.00
48668;BME280;34453;52.198;5.004;2023-04-15T09:32:53;101600.28;;;12.89;100.00
48668;BME280;34453;52.198;5.004;2023-04-15T09:35:19;101607.88;;;12.82;100.00
48668;BME280;34453;52.198;5.004;2023-04-15T09:37:46;101612.31;;;12.82;100.00
48668;BME280;34453;52.198;5.004;2023-04-15T09:40:12;101611.38;;;12.83;100.00
48668;BME280;34453;52.198;5.004;2023-04-15T09:42:56;101607.34;;;12.89;100.00
48668;BME280;34453;52.198;5.004;2023-04-15T09:45:22;101630.00;;;12.70;100.00
48668;BME280;34453;52.198;5.004;2023-04-15T09:47:48;101625.69;;;12.69;100.00
48668;BME280;34453;52.198;5.004;2023-04-15T09:50:17;101639.44;;;13.02;100.00
48668;BME280;34453;52.198;5.004;2023-04-15T09:52:43;101632.63;;;12.80;100.00
48668;BME280;34453;52.198;5.004;2023-04-15T09:55:10;101632.38;;;12.93;100.00
48668;BME280;34453;52.198;5.004;2023-04-15T09:57:37;101632.22;;;12.84;100.00
48668;BME280;34453;52.198;5.004;2023-04-15T10:00:04;101637.47;;;12.84;100.00
48668;BME280;34453;52.198;5.004;2023-04-15T10:02:33;101635.69;;;12.85;100.00
48668;BME280;34453;52.198;5.004;2023-04-15T10:05:00;101640.72;;;12.48;100.00
48668;BME280;34453;52.198;5.004;2023-04-15T10:07:26;101652.63;;;12.52;100.00
48668;BME280;34453;52.198;5.004;2023-04-15T10:09:52;101643.75;;;12.43;100.00
48668;BME280;34453;52.198;5.004;2023-04-15T10:12:18;101644.69;;;12.32;100.00
48668;BME280;34453;52.198;5.004;2023-04-15T10:14:47;101662.56;;;12.17;100.00
48668;BME280;34453;52.198;5.004;2023-04-15T10:17:16;101660.06;;;12.16;100.00
48668;BME280;34453;52.198;5.004;2023-04-15T10:19:42;101659.72;;;12.30;100.00
48668;BME280;34453;52.198;5.004;2023-04-15T10:22:09;101661.94;;;12.25;100.00
48668;BME280;34453;52.198;5.004;2023-04-15T10:24:34;101662.13;;;12.43;100.00
48668;BME280;34453;52.198;5.004;2023-04-15T10:27:02;101660.31;;;12.43;100.00
48668;BME280;34453;52.198;5.004;2023-04-15T10:29:28;101668.41;;;12.21;100.00
48668;BME280;34453;52.198;5.004;2023-04-15T10:31:54;101669.72;;;12.15;100.00
48668;BME280;34453;52.198;5.004;2023-04-15T10:34:23;101675.78;;;12.06;100.00
48668;BME280;34453;52.198;5.004;2023-04-15T10:36:48;101672.84;;;12.30;100.00
48668;BME280;34453;52.198;5.004;2023-04-15T10:42:13;101683.25;;;12.51;100.00
48668;BME280;34453;52.198;5.004;2023-04-15T10:44:44;101679.00;;;12.60;100.00
48668;BME280;34453;52.198;5.004;2023-04-15T10:47:15;101678.66;;;12.74;100.00
48668;BME280;34453;52.198;5.004;2023-04-15T10:50:04;101688.06;;;12.86;100.00
48668;BME280;34453;52.198;5.004;2023-04-15T10:52:30;101676.31;;;13.00;100.00
48668;BME280;34453;52.198;5.004;2023-04-15T10:55:03;101686.13;;;12.89;100.00
48668;BME280;34453;52.198;5.004;2023-04-15T10:57:40;101692.13;;;12.50;100.00
48668;BME280;34453;52.198;5.004;2023-04-15T11:05:12;101691.13;;;12.92;100.00
48668;BME280;34453;52.198;5.004;2023-04-15T11:12:55;101705.44;;;13.38;100.00
48668;BME280;34453;52.198;5.004;2023-04-15T11:15:36;101711.63;;;13.17;100.00
48668;BME280;34453;52.198;5.004;2023-04-15T11:18:14;101704.03;;;12.64;100.00
48668;BME280;34453;52.198;5.004;2023-04-15T11:20:42;101712.28;;;12.90;100.00
48668;BME280;34453;52.198;5.004;2023-04-15T11:23:09;101724.63;;;13.19;100.00
48668;BME280;34453;52.198;5.004;2023-04-15T11:25:36;101722.09;;;12.98;100.00
48668;BME280;34453;52.198;5.004;2023-04-15T11:28:02;101729.03;;;12.99;100.00
48668;BME280;34453;52.198;5.004;2023-04-15T11:30:30;101729.66;;;13.41;100.00
48668;BME280;34453;52.198;5.004;2023-04-15T11:32:58;101734.22;;;13.39;100.00
48668;BME280;34453;52.198;5.004;2023-04-15T11:35:24;101737.94;;;13.85;100.00
48668;BME280;34453;52.198;5.004;2023-04-15T11:37:50;101739.41;;;13.98;100.00
48668;BME280;34453;52.198;5.004;2023-04-15T11:40:23;101742.09;;;13.59;100.00
48668;BME280;34453;52.198;5.004;2023-04-15T11:43:17;101746.47;;;13.19;100.00
48668;BME280;34453;52.198;5.004;2023-04-15T11:45:56;101751.38;;;13.73;100.00
48668;BME280;34453;52.198;5.004;2023-04-15T11:48:24;101747.03;;;14.10;100.00
48668;BME280;34453;52.198;5.004;2023-04-15T11:51:03;101747.22;;;13.89;100.00
48668;BME280;34453;52.198;5.004;2023-04-15T11:53:39;101760.06;;;13.54;100.00
48668;BME280;34453;52.198;5.004;2023-04-15T11:56:07;101748.09;;;13.01;100.00
48668;BME280;34453;52.198;5.004;2023-04-15T11:58:34;101746.41;;;13.70;100.00
48668;BME280;34453;52.198;5.004;2023-04-15T12:01:02;101746.50;;;13.78;100.00
48668;BME280;34453;52.198;5.004;2023-04-15T12:06:23;101741.22;;;13.97;100.00
48668;BME280;34453;52.198;5.004;2023-04-15T12:08:58;101748.72;;;13.82;100.00
48668;BME280;34453;52.198;5.004;2023-04-15T12:11:46;101754.66;;;13.84;100.00
48668;BME280;34453;52.198;5.004;2023-04-15T12:14:28;101755.81;;;14.29;100.00
48668;BME280;34453;52.198;5.004;2023-04-15T12:16:57;101766.72;;;13.87;100.00
48668;BME280;34453;52.198;5.004;2023-04-15T12:21:53;101758.81;;;13.87;100.00
48668;BME280;34453;52.198;5.004;2023-04-15T12:24:20;101774.41;;;14.18;100.00
48668;BME280;34453;52.198;5.004;2023-04-15T12:26:52;101771.28;;;14.61;100.00
48668;BME280;34453;52.198;5.004;2023-04-15T12:29:19;101782.47;;;14.06;100.00
48668;BME280;34453;52.198;5.004;2023-04-15T12:31:47;101785.28;;;13.85;100.00
48668;BME280;34453;52.198;5.004;2023-04-15T12:34:14;101778.94;;;14.55;100.00
48668;BME280;34453;52.198;5.004;2023-04-15T12:36:40;101798.50;;;14.33;100.00
48668;BME280;34453;52.198;5.004;2023-04-15T12:39:05;101794.97;;;14.51;100.00
48668;BME280;34453;52.198;5.004;2023-04-15T12:41:31;101803.13;;;14.68;100.00
48668;BME280;34453;52.198;5.004;2023-04-15T12:43:57;101803.41;;;14.65;100.00
48668;BME280;34453;52.198;5.004;2023-04-15T12:46:23;101804.69;;;14.61;100.00
48668;BME280;34453;52.198;5.004;2023-04-15T12:48:49;101800.38;;;14.60;100.00
48668;BME280;34453;52.198;5.004;2023-04-15T12:51:15;101814.06;;;13.87;100.00
48668;BME280;34453;52.198;5.004;2023-04-15T12:53:40;101817.47;;;14.36;100.00
48668;BME280;34453;52.198;5.004;2023-04-15T12:56:06;101810.03;;;14.79;100.00
48668;BME280;34453;52.198;5.004;2023-04-15T12:58:32;101825.69;;;14.23;100.00
48668;BME280;34453;52.198;5.004;2023-04-15T13:00:57;101819.84;;;14.20;100.00
48668;BME280;34453;52.198;5.004;2023-04-15T13:03:23;101831.66;;;13.86;100.00